White Plains, VA (23893)

7:32 PM EST on January 27, 2015 (GMT -0500)
North Shore Acres | Change Station
CLOSE
Current Station
Personal Weather Station
Location: Littleton, NC
Elevation: 210 ft
Nearby Weather Stations

Elev 210 ft 36.53 °N, 77.97 °W | Updated 13 minutes ago

Overcast
Overcast
30.9 °F
Feels Like 31 °F
N
0.0
Wind Variable Wind from East

Today
High -- | Low -- °F
--% Chance of Precip.
Yesterday
High -- | Low -- °F
Precip. -- in
7:17 AM 5:31 PM
First Quarter, 59% visible
Pressure 29.94 in
Visibility 10.0 miles
Clouds Mostly Cloudy 8500 ft
Windchill 31 °F
Dew Point 28 °F
Humidity 88%
Rainfall 0.02 in
Snow Depth Not available.
UV 0 out of 12
Pollen .40 out of 12
Air Quality Not available.
Flu Activity Not available.
METAR KAVC 280016Z AUTO 01004KT 10SM BKN085 00/M04 A2994 RMK AO2 T00001037

More Conditions Fewer Conditions

Pressure 29.94 in
Visibility 10.0 miles
Clouds Mostly Cloudy 8500 ft
Windchill 31 °F
Dew Point 28 °F
Humidity 88%
Rainfall 0.02 in
Snow Depth Not available.
UV 0 out of 12
Pollen .40 out of 12
Air Quality Not available.
Flu Activity Not available.
METAR KAVC 280016Z AUTO 01004KT 10SM BKN085 00/M04 A2994 RMK AO2 T00001037

More Conditions Fewer Conditions

10-Day Weather Forecast

Almanac

Astronomy

Jan. 27, 2015 Rise Set
Actual Time
Civil Twilight
Nautical Twilight
Astronomical Twilight
Moon
Length of Visible Light
Length of Day
Tomorrow will be .
, % of the Moon is Illuminated

Today's Extremes

State Highs State Lows

Community

WunderPhotos

Upload Photos

1,791,000 photos uploaded!

WunderBlogs® & News

Nearby

Air Quality

  Air Quality AQ Index Pollutant
Not available.

Snow Depth

Station Depth Elevation

Earthquake Activity

City Distance Mag. Time & Date
Minimum magnitude displayed is 2.5.

Coastal Water Temperatures

Place Temperature

Nearby Weather Stations